Terminal Aerodrome Forecast
Issued by NWS

Home | Current Version | Previous Version | Text Only | Print | Product List | Glossary On
Versions: 1 2 3 4 5 6 7 8 9 10 11 12 13 14 15 16 17 18 19 20
000
FTUS42 KGSP 282334
TAFGMU
TAF
KGMU 282334Z 2900/2924 23005KT P6SM VCTS BKN060CB BKN120
     FM290200 23004KT P6SM BKN120
     FM290700 00000KT 5SM BR SCT017 BKN250
      TEMPO 2910/2912 BKN017
     FM291500 17004KT P6SM VCTS FEW035CB BKN040
     FM292000 13007KT P6SM BKN045=

USA.gov is the U.S. government's official web portal to all federal, state and local government web resources and services.